ドーハ の空港の天気 - METARとTAF

ドーハ国際空港 ( OTBD / DOH ) - カタール ドーハ
飛行場実況気象(Metar)
観測時間10/20 07:00 AST (10/20 04:00 UTC)
風向・風速不定 1m/s
視程7000m
天気現象
なし
気温32℃
湿度59%
気圧1014hPa
METAROTBD 200400Z VRB01KT 7000 NSC 32/23 Q1014 NOSIG
過去の天気等 Google飛行場航空写真 Wunderground天気予報

過去48時間のMETAR

飛行場予報(TAF)
発表時間: 10/20 02:01 AST (10/19 23:01 UTC)
予報対象時間: 20日3時 AST ~ 21日9時 AST
風向・風速東 4m/s
視程9000m
なし
20日3時 AST ~ 20日8時 AST に一時的に
風向・風速不定 2m/s
視程5000m
天気現象煙霧
20日13時 AST ~ 20日19時 AST に 確率 30% で一時的に
風向・風速不定 8m/s 瞬間風速 13m/s
視程5000m
天気現象弱い雷雨
少しの積乱雲 雲底高度 1070m
TAF OTBD 192301Z 2000/2106 10007KT 9000 NSC
TEMPO 2000/2005 VRB03KT 5000 HZ
PROB30 TEMPO 2010/2016 VRB15G25KT 5000 -TSRA FEW035CB